logo
Search for airport 
image banner adimage banner adimage banner ad
image banner ad

EHPK - P15-Acd / Rijn-C (Oil Platform)

Located in , Netherlands

ICAO - , IATA -

Data provided by Airmate  

General information

Coordinates: N52°17'25" E3°48'58"
Elevation is feet MSL.
 
View others Airports in Noord-Holland

Operational data

Special qualification required
Current time UTC:
Current local time:
METAR: EHPG 180055Z AUTO 21011KT 150V270 9999 NSC 15/12 Q1014
View NOTAMs / SUP AIP / TFR affecting this airport [VIEW]
Communications frequencies: [VIEW]

Runways:

Airport contact information

Address: Netherlands

Satellite view of EHPK